Terminal Aerodrome Forecast
Issued by NWS

Home | Current Version | Previous Version | Graphics & Text | Print | Product List | Glossary On
Versions: 1 2 3 4 5 6 7 8 9 10 11 12 13 14 15 16 17 18 19
000
FTUS43 KUNR 012300
TAFGCC
TAF
KGCC 012320Z 0200/0224 28006KT P6SM BKN080
     FM020600 23010KT P6SM SCT100
     FM021800 34018G28KT P6SM BKN040=

USA.gov is the U.S. government's official web portal to all federal, state and local government web resources and services.